Time;durP1;ratioP1;P1;durP2;ratioP2;P2;SDS_P1;SDS_P2;PMS_P1;PMS_P2;Temp;Humidity;BMP_temperature;BMP_pressure;BME280_temperature;BME280_humidity;BME280_pressure;Samples;Min_cycle;Max_cycle;Signal;HPM_P1;HPM_P2
2023/09/17 00:01:36;;;;;;;0.38;0.38;;;;;;;20.07;66.17;101525.44;5076314;28;20060;-77
2023/09/17 00:04:03;;;;;;;0.17;0.17;;;;;;;20.06;66.12;101528.19;5073362;28;20124;-78
2023/09/17 00:06:30;;;;;;;0.10;0.10;;;;;;;20.03;65.93;101530.09;5074330;28;20539;-80
2023/09/17 00:08:56;;;;;;;0.17;0.17;;;;;;;20.03;66.04;101523.84;5074928;28;20033;-78
2023/09/17 00:11:22;;;;;;;0.20;0.20;;;;;;;20.03;66.20;101523.84;5079893;28;20036;-79
2023/09/17 00:13:48;;;;;;;0.00;0.00;;;;;;;20.00;66.22;101524.88;5071756;28;20506;-79
2023/09/17 00:16:14;;;;;;;0.30;0.30;;;;;;;20.01;65.99;101512.28;5077529;28;20036;-78
2023/09/17 00:18:41;;;;;;;0.52;0.52;;;;;;;19.96;65.88;101507.16;5070186;28;20115;-79
2023/09/17 00:21:07;;;;;;;0.00;0.00;;;;;;;19.97;65.95;101508.88;5067955;28;20029;-78
2023/09/17 00:23:33;;;;;;;0.10;0.10;;;;;;;19.97;65.92;101514.25;5069412;28;20023;-79
2023/09/17 00:25:59;;;;;;;0.22;0.22;;;;;;;19.95;65.97;101516.16;5069739;28;20125;-78
2023/09/17 00:28:25;;;;;;;0.20;0.20;;;;;;;19.93;65.71;101509.97;5073369;28;20056;-79
2023/09/17 00:30:51;;;;;;;0.10;0.10;;;;;;;19.91;65.65;101502.94;5065808;28;20047;-79
2023/09/17 00:33:17;;;;;;;0.20;0.20;;;;;;;19.90;65.37;101503.88;5069889;28;20025;-78
2023/09/17 00:35:44;;;;;;;0.08;0.08;;;;;;;19.86;64.90;101492.38;5064518;28;20375;-78
2023/09/17 00:38:10;;;;;;;0.73;0.73;;;;;;;19.86;64.99;101503.16;5070324;28;20060;-78
2023/09/17 00:40:37;;;;;;;0.03;0.03;;;;;;;19.80;64.83;101500.72;5067095;28;20037;-78
2023/09/17 00:43:03;;;;;;;0.00;0.00;;;;;;;19.79;65.19;101499.88;5073331;28;20451;-78
2023/09/17 00:45:31;;;;;;;0.13;0.13;;;;;;;19.76;65.49;101504.50;5072054;28;20029;-79
2023/09/17 00:48:00;;;;;;;0.00;0.00;;;;;;;19.71;65.23;101497.56;5070379;28;20089;-79
2023/09/17 00:50:26;;;;;;;0.65;0.65;;;;;;;19.72;65.35;101493.88;5071436;28;20036;-78
2023/09/17 00:52:52;;;;;;;0.00;0.00;;;;;;;19.73;65.26;101497.47;5070373;28;20529;-78
2023/09/17 00:55:19;;;;;;;0.20;0.20;;;;;;;19.72;64.99;101483.13;5069907;28;20521;-78
2023/09/17 00:57:47;;;;;;;0.10;0.10;;;;;;;19.72;64.62;101488.50;5067006;28;20033;-77
2023/09/17 01:00:14;;;;;;;0.85;0.85;;;;;;;19.73;64.76;101478.66;5069265;28;20028;-77
2023/09/17 01:02:42;;;;;;;0.05;0.05;;;;;;;19.75;64.80;101475.88;5070616;28;20571;-78
2023/09/17 01:05:09;;;;;;;0.10;0.10;;;;;;;19.73;64.98;101476.81;5072583;28;20093;-78
2023/09/17 01:07:36;;;;;;;0.22;0.22;;;;;;;19.70;64.80;101479.66;5065347;28;20047;-79
2023/09/17 01:10:02;;;;;;;0.20;0.20;;;;;;;19.69;64.61;101477.06;5070010;28;20081;-78
2023/09/17 01:12:28;;;;;;;0.30;0.30;;;;;;;19.67;64.39;101479.81;5071812;28;20067;-78
2023/09/17 01:14:54;;;;;;;0.57;0.52;;;;;;;19.64;64.23;101471.00;5071501;28;20040;-79
2023/09/17 01:17:27;;;;;;;0.57;0.57;;;;;;;19.65;63.95;101476.34;5071855;28;20036;-78
2023/09/17 01:19:55;;;;;;;0.50;0.50;;;;;;;19.62;64.30;101475.59;5074468;28;20034;-79
2023/09/17 01:22:35;;;;;;;0.00;0.00;;;;;;;19.63;64.20;101467.47;5069773;28;20111;-79
2023/09/17 01:27:40;;;;;;;0.00;0.00;;;;;;;19.63;64.10;101459.41;5060460;28;20384;-79
2023/09/17 01:30:11;;;;;;;0.25;0.25;;;;;;;19.62;63.60;101454.97;5041727;28;20029;-79
2023/09/17 01:32:39;;;;;;;0.20;0.20;;;;;;;19.62;63.39;101459.47;5044342;28;20037;-79
2023/09/17 01:35:05;;;;;;;0.35;0.35;;;;;;;19.62;63.40;101451.41;5041923;28;20053;-79
2023/09/17 01:37:36;;;;;;;0.10;0.10;;;;;;;19.68;63.67;101460.03;5047579;28;20048;-78
2023/09/17 01:40:11;;;;;;;0.20;0.20;;;;;;;19.69;63.47;101451.03;5038973;28;20092;-80
2023/09/17 01:42:40;;;;;;;0.10;0.10;;;;;;;19.70;63.58;101454.59;5044495;28;20971;-79
2023/09/17 01:45:09;;;;;;;0.10;0.10;;;;;;;19.68;62.92;101446.59;5046667;28;20289;-79
2023/09/17 01:47:36;;;;;;;0.32;0.32;;;;;;;19.72;62.89;101448.19;5047547;28;20564;-79
2023/09/17 01:50:04;;;;;;;0.10;0.10;;;;;;;19.72;63.05;101440.13;5047462;28;20037;-79
2023/09/17 01:52:33;;;;;;;0.00;0.00;;;;;;;19.74;63.42;101450.81;5042632;28;20037;-79
2023/09/17 01:55:00;;;;;;;0.20;0.20;;;;;;;19.73;63.13;101436.50;5038899;28;20029;-78
2023/09/17 01:57:26;;;;;;;0.30;0.30;;;;;;;19.73;62.95;101436.50;5043891;28;20039;-79
2023/09/17 01:59:52;;;;;;;0.05;0.05;;;;;;;19.75;62.81;101433.75;5044161;28;20045;-78
2023/09/17 02:02:19;;;;;;;0.20;0.20;;;;;;;19.77;62.95;101426.47;5046460;28;20022;-78
2023/09/17 02:04:46;;;;;;;0.55;0.55;;;;;;;19.79;63.00;101434.44;5043392;28;20029;-78
2023/09/17 02:07:15;;;;;;;0.30;0.30;;;;;;;19.75;62.73;101438.22;5045755;28;20022;-78
2023/09/17 02:09:41;;;;;;;0.40;0.40;;;;;;;19.69;61.96;101431.38;5046482;28;20029;-79
2023/09/17 02:12:07;;;;;;;0.13;0.13;;;;;;;19.73;62.33;101441.00;5033191;28;20368;-78
2023/09/17 02:14:33;;;;;;;0.10;0.10;;;;;;;19.73;62.91;101436.50;5035532;28;20095;-78
2023/09/17 02:16:59;;;;;;;0.03;0.03;;;;;;;19.73;62.82;101444.56;5048867;28;20067;-78
2023/09/17 02:19:27;;;;;;;0.40;0.40;;;;;;;19.72;63.00;101442.81;5040914;28;20028;-79
2023/09/17 02:21:53;;;;;;;0.25;0.17;;;;;;;19.73;63.00;101441.88;5044403;28;20414;-78
2023/09/17 02:24:20;;;;;;;0.55;0.55;;;;;;;19.69;62.41;101450.19;5045266;28;20026;-78
2023/09/17 02:26:46;;;;;;;0.38;0.38;;;;;;;19.71;62.72;101453.66;5036829;28;20057;-78
2023/09/17 02:29:13;;;;;;;0.40;0.40;;;;;;;19.73;63.08;101446.38;5041545;28;20053;-77
2023/09/17 02:31:39;;;;;;;0.20;0.20;;;;;;;19.75;63.08;101444.50;5039435;28;20044;-78
2023/09/17 02:34:05;;;;;;;0.60;0.60;;;;;;;19.75;63.03;101438.22;5047947;28;20568;-79
2023/09/17 02:36:34;;;;;;;0.30;0.30;;;;;;;19.76;63.18;101432.78;5035610;28;20041;-77
2023/09/17 02:39:00;;;;;;;0.03;0.03;;;;;;;19.78;63.01;101435.41;5029607;28;20386;-78
2023/09/17 02:41:26;;;;;;;0.03;0.03;;;;;;;19.77;62.95;101434.53;5028715;28;20033;-78
2023/09/17 02:43:52;;;;;;;0.00;0.00;;;;;;;19.77;62.93;101430.97;5028605;28;20570;-78
2023/09/17 02:46:18;;;;;;;0.32;0.32;;;;;;;19.72;62.41;101434.75;5032589;28;20037;-78
2023/09/17 02:48:47;;;;;;;0.10;0.10;;;;;;;19.73;62.32;101431.13;5031552;28;20037;-78
2023/09/17 02:51:13;;;;;;;0.17;0.17;;;;;;;19.72;62.03;101429.38;5025405;28;20021;-77
2023/09/17 02:53:39;;;;;;;0.10;0.10;;;;;;;19.73;62.84;101425.72;5027740;28;20042;-78
2023/09/17 02:56:05;;;;;;;0.15;0.15;;;;;;;19.68;62.09;101427.78;5024432;28;20387;-78
2023/09/17 02:58:31;;;;;;;0.10;0.10;;;;;;;19.67;62.27;101417.97;5031678;28;20045;-78
2023/09/17 03:00:57;;;;;;;0.10;0.10;;;;;;;19.62;61.71;101422.72;5030134;28;20037;-78
2023/09/17 03:03:23;;;;;;;0.35;0.35;;;;;;;19.59;61.95;101427.34;5035201;28;20032;-78
2023/09/17 03:05:49;;;;;;;0.40;0.40;;;;;;;19.52;62.31;101416.91;5027487;28;20037;-77
2023/09/17 03:08:16;;;;;;;0.28;0.28;;;;;;;19.55;62.44;101429.31;5029949;28;20064;-77
2023/09/17 03:10:42;;;;;;;0.20;0.20;;;;;;;19.56;62.47;101428.38;5025938;28;20109;-78
2023/09/17 03:13:14;;;;;;;0.10;0.10;;;;;;;19.59;62.49;101430.03;5032249;28;20025;-78
2023/09/17 03:15:41;;;;;;;0.20;0.20;;;;;;;19.54;62.64;101424.91;5029323;28;20030;-78
2023/09/17 03:18:08;;;;;;;0.28;0.28;;;;;;;19.53;62.85;101431.22;5030000;28;20499;-77
2023/09/17 03:20:34;;;;;;;0.90;0.90;;;;;;;19.51;62.96;101419.69;5033601;28;20488;-77
2023/09/17 03:23:04;;;;;;;0.10;0.10;;;;;;;19.47;63.24;101410.88;5028191;28;20026;-78
2023/09/17 03:25:31;;;;;;;0.00;0.00;;;;;;;19.46;63.20;101414.50;5027210;28;20059;-78
2023/09/17 03:27:59;;;;;;;0.85;0.85;;;;;;;19.43;63.34;101424.53;5029985;28;20064;-78
2023/09/17 03:30:26;;;;;;;0.00;0.00;;;;;;;19.39;63.51;101421.16;5033275;28;20056;-77
2023/09/17 03:32:53;;;;;;;0.10;0.10;;;;;;;19.37;63.86;101418.50;5029871;28;20029;-78
2023/09/17 03:35:19;;;;;;;0.00;0.00;;;;;;;19.36;63.83;101426.66;5029776;28;20025;-77
2023/09/17 03:37:46;;;;;;;0.08;0.08;;;;;;;19.32;63.90;101419.69;5024957;28;20036;-77
2023/09/17 03:40:14;;;;;;;0.00;0.00;;;;;;;19.31;64.15;101418.81;5025863;28;20080;-77
2023/09/17 03:42:42;;;;;;;1.45;0.30;;;;;;;19.28;64.24;101416.28;5026391;28;20080;-77
2023/09/17 03:45:10;;;;;;;0.30;0.30;;;;;;;19.26;64.08;101404.72;5032424;28;20017;-77
2023/09/17 03:47:40;;;;;;;0.35;0.35;;;;;;;19.22;64.24;101408.50;5031530;28;20024;-78
2023/09/17 03:50:08;;;;;;;0.47;0.25;;;;;;;19.21;64.13;101406.75;5029198;28;20597;-77
2023/09/17 03:52:36;;;;;;;0.30;0.30;;;;;;;19.19;64.09;101405.97;5027770;28;20083;-78
2023/09/17 03:55:07;;;;;;;0.00;0.00;;;;;;;19.14;64.39;101405.31;5023914;28;20504;-78
2023/09/17 03:57:35;;;;;;;0.10;0.10;;;;;;;19.13;64.36;101399.06;5031782;28;20060;-77
2023/09/17 04:00:06;;;;;;;0.10;0.10;;;;;;;19.13;64.22;101401.75;5034433;28;20118;-79
2023/09/17 04:02:34;;;;;;;0.27;0.27;;;;;;;19.11;64.60;101402.78;5033175;28;20056;-78
2023/09/17 04:05:00;;;;;;;0.20;0.20;;;;;;;19.13;64.54;101415.19;5033394;28;20029;-78
2023/09/17 04:07:26;;;;;;;0.00;0.00;;;;;;;19.12;64.38;101407.22;5034788;28;20013;-78
2023/09/17 04:09:52;;;;;;;0.30;0.30;;;;;;;19.11;64.51;101408.16;5028073;28;20391;-78
2023/09/17 04:12:18;;;;;;;0.20;0.20;;;;;;;19.12;64.66;101412.59;5025110;28;20061;-79
2023/09/17 04:14:44;;;;;;;0.10;0.10;;;;;;;19.16;64.54;101406.13;5030217;28;20037;-79
2023/09/17 04:17:10;;;;;;;0.43;0.43;;;;;;;19.15;64.69;101407.94;5025011;28;20029;-80
2023/09/17 04:19:37;;;;;;;0.15;0.15;;;;;;;19.16;64.67;101398.91;5029139;28;20502;-79
2023/09/17 04:22:03;;;;;;;0.10;0.10;;;;;;;19.22;64.80;101408.50;5033491;28;20037;-79
2023/09/17 04:24:29;;;;;;;1.00;0.32;;;;;;;19.13;63.84;101404.44;5024403;28;20041;-79
2023/09/17 04:26:56;;;;;;;0.15;0.15;;;;;;;19.25;64.08;101402.97;5028514;28;20025;-78
2023/09/17 04:29:22;;;;;;;0.20;0.20;;;;;;;19.28;64.03;101399.28;5027676;28;20033;-78
2023/09/17 04:31:48;;;;;;;0.22;0.22;;;;;;;19.26;64.08;101404.72;5027928;28;20037;-77
2023/09/17 04:34:15;;;;;;;0.10;0.10;;;;;;;19.28;64.05;101402.84;5033317;28;20037;-79
2023/09/17 04:36:41;;;;;;;0.10;0.10;;;;;;;19.29;63.89;101399.22;5030155;28;20091;-78
2023/09/17 04:39:09;;;;;;;0.25;0.25;;;;;;;19.32;64.06;101399.06;5030582;28;20590;-78
2023/09/17 04:41:36;;;;;;;0.35;0.35;;;;;;;19.29;64.21;101398.34;5028607;28;20435;-78
2023/09/17 04:44:03;;;;;;;0.20;0.20;;;;;;;19.31;64.05;101399.13;5025929;28;20041;-78
2023/09/17 04:46:29;;;;;;;0.30;0.22;;;;;;;19.30;63.74;101400.97;5032448;28;20052;-78
2023/09/17 04:48:56;;;;;;;0.05;0.05;;;;;;;19.30;63.73;101400.09;5030207;28;20514;-79
2023/09/17 04:51:22;;;;;;;0.10;0.10;;;;;;;19.30;64.06;101398.28;5028190;28;20033;-78
2023/09/17 04:53:48;;;;;;;0.10;0.10;;;;;;;19.33;64.02;101400.81;5027904;28;20039;-79
2023/09/17 04:56:14;;;;;;;0.10;0.10;;;;;;;19.32;64.01;101391.00;5029449;28;20029;-78
2023/09/17 04:58:41;;;;;;;0.85;0.82;;;;;;;19.32;64.11;101399.06;5030008;28;20044;-79
2023/09/17 05:01:07;;;;;;;0.10;0.10;;;;;;;19.34;63.92;101391.81;5027392;28;20040;-79
2023/09/17 05:03:33;;;;;;;0.00;0.00;;;;;;;19.30;64.14;101397.41;5029232;28;20034;-79
2023/09/17 05:05:59;;;;;;;0.10;0.10;;;;;;;19.34;63.96;101393.59;5023080;28;20044;-79
2023/09/17 05:08:26;;;;;;;0.47;0.47;;;;;;;19.35;63.98;101393.56;5029588;28;20044;-79
2023/09/17 05:10:53;;;;;;;0.08;0.08;;;;;;;19.37;63.89;101390.78;5032001;28;20095;-79
2023/09/17 05:13:19;;;;;;;0.75;0.75;;;;;;;19.37;63.92;101397.03;5029897;28;20025;-78
2023/09/17 05:15:45;;;;;;;0.10;0.10;;;;;;;19.35;63.63;101387.28;5026917;28;20032;-79
2023/09/17 05:18:11;;;;;;;0.57;0.57;;;;;;;19.39;64.01;101388.91;5030397;28;20030;-79
2023/09/17 05:20:40;;;;;;;0.00;0.00;;;;;;;19.40;63.91;101387.94;5028221;28;20033;-78
2023/09/17 05:23:06;;;;;;;0.10;0.10;;;;;;;19.42;63.82;101386.06;5031784;28;20037;-79
2023/09/17 05:25:33;;;;;;;1.23;0.65;;;;;;;19.40;63.69;101396.88;5027359;28;20110;-78
2023/09/17 05:27:59;;;;;;;0.10;0.10;;;;;;;19.45;63.75;101393.09;5025336;28;20296;-79
2023/09/17 05:30:25;;;;;;;0.47;0.47;;;;;;;19.47;64.09;101391.22;5027281;28;20033;-79
2023/09/17 05:32:51;;;;;;;0.20;0.20;;;;;;;19.46;63.99;101384.94;5029956;28;20030;-79
2023/09/17 05:35:17;;;;;;;0.20;0.20;;;;;;;19.44;63.71;101391.34;5026708;28;20611;-79
2023/09/17 05:37:44;;;;;;;0.30;0.30;;;;;;;19.44;63.48;101397.63;5031662;28;20101;-79
2023/09/17 05:40:10;;;;;;;0.10;0.10;;;;;;;19.41;63.05;101397.75;5023463;28;20038;-78
2023/09/17 05:42:37;;;;;;;0.10;0.10;;;;;;;19.43;63.33;101395.88;5028978;28;20036;-78
2023/09/17 05:45:04;;;;;;;0.20;0.20;;;;;;;19.46;63.22;101394.84;5026909;28;20026;-78
2023/09/17 05:47:30;;;;;;;2.17;0.65;;;;;;;19.47;63.49;101391.22;5031003;28;20040;-79
2023/09/17 05:49:59;;;;;;;0.10;0.10;;;;;;;19.44;63.09;101391.34;5031043;28;20037;-78
2023/09/17 05:52:25;;;;;;;0.50;0.50;;;;;;;19.42;63.14;101394.13;5020079;28;20418;-79
2023/09/17 05:54:51;;;;;;;5.30;0.65;;;;;;;19.33;63.66;101384.69;5031032;28;20021;-79
2023/09/17 05:57:17;;;;;;;0.10;0.10;;;;;;;19.35;63.48;101393.56;5026958;28;20022;-77
2023/09/17 05:59:44;;;;;;;0.00;0.00;;;;;;;19.30;63.68;101400.97;5027302;28;20033;-78
2023/09/17 06:02:11;;;;;;;0.65;0.65;;;;;;;19.30;63.46;101387.53;5020638;28;20109;-78
2023/09/17 06:04:37;;;;;;;0.75;0.35;;;;;;;19.30;63.55;101394.72;5025303;28;20112;-79
2023/09/17 06:07:04;;;;;;;0.10;0.10;;;;;;;19.27;63.96;101390.34;5025006;28;20186;-78
2023/09/17 06:09:31;;;;;;;0.30;0.30;;;;;;;19.22;63.98;101392.41;5025107;28;20683;-79
2023/09/17 06:11:57;;;;;;;0.10;0.10;;;;;;;19.21;64.08;101401.38;5027101;28;20022;-78
2023/09/17 06:14:23;;;;;;;0.43;0.43;;;;;;;19.07;64.29;101394.84;5024463;28;20040;-78
2023/09/17 06:16:50;;;;;;;2.50;0.52;;;;;;;19.06;64.91;101393.09;5032461;28;20541;-78
2023/09/17 06:19:16;;;;;;;0.10;0.10;;;;;;;19.00;64.74;101398.75;5029101;28;20403;-77
2023/09/17 06:21:43;;;;;;;0.35;0.35;;;;;;;18.92;65.05;101406.31;5031155;28;20037;-77
2023/09/17 06:24:09;;;;;;;0.30;0.20;;;;;;;18.83;65.22;101404.91;5024698;28;20109;-78
2023/09/17 06:26:36;;;;;;;0.10;0.10;;;;;;;18.76;65.46;101406.97;5026058;28;20029;-78
2023/09/17 06:29:02;;;;;;;0.10;0.10;;;;;;;18.67;66.87;101407.41;5023724;28;20038;-78
2023/09/17 06:31:28;;;;;;;0.10;0.10;;;;;;;18.52;68.33;101402.72;5023434;28;20084;-77
2023/09/17 06:33:54;;;;;;;0.10;0.10;;;;;;;18.47;68.49;101407.41;5028281;28;20026;-78
2023/09/17 06:36:22;;;;;;;0.40;0.40;;;;;;;18.45;68.18;101403.94;5026889;28;20036;-77
2023/09/17 06:38:48;;;;;;;0.28;0.28;;;;;;;18.35;69.17;101407.00;5022372;28;20029;-78
2023/09/17 06:41:14;;;;;;;0.13;0.13;;;;;;;18.34;68.93;101399.91;5027753;28;20040;-79
2023/09/17 06:43:40;;;;;;;0.10;0.10;;;;;;;18.27;69.16;101401.13;5033508;28;20034;-78
2023/09/17 06:46:06;;;;;;;0.00;0.00;;;;;;;18.24;69.82;101404.81;5032095;28;20550;-78
2023/09/17 06:48:33;;;;;;;0.10;0.10;;;;;;;18.28;69.72;101405.56;5024755;28;20075;-78
2023/09/17 06:50:59;;;;;;;0.15;0.15;;;;;;;18.23;70.34;101413.78;5030109;28;20041;-78
2023/09/17 06:53:25;;;;;;;0.47;0.47;;;;;;;18.29;70.14;101417.16;5026094;28;20036;-78
2023/09/17 06:55:51;;;;;;;0.32;0.32;;;;;;;18.25;69.66;101413.72;5033295;28;20037;-78
2023/09/17 06:58:17;;;;;;;2.85;2.63;;;;;;;18.22;69.75;101416.56;5029220;28;20029;-77
2023/09/17 07:00:44;;;;;;;0.00;0.00;;;;;;;18.22;69.10;101412.03;5025902;28;20030;-77
2023/09/17 07:03:10;;;;;;;1.17;0.52;;;;;;;18.15;70.56;101415.06;5025681;28;20076;-77
2023/09/17 07:05:36;;;;;;;0.13;0.13;;;;;;;18.22;69.79;101417.41;5025959;28;20671;-77
2023/09/17 07:08:02;;;;;;;0.25;0.25;;;;;;;18.17;70.83;101413.16;5026455;28;20045;-77
2023/09/17 07:10:29;;;;;;;0.50;0.50;;;;;;;18.16;71.63;101406.94;5022220;28;20056;-77
2023/09/17 07:12:55;;;;;;;0.10;0.10;;;;;;;18.17;71.14;101408.69;5023586;28;20057;-77
2023/09/17 07:15:22;;;;;;;1.15;1.05;;;;;;;18.20;70.32;101415.72;5024292;28;20022;-77
2023/09/17 07:17:48;;;;;;;0.43;0.43;;;;;;;18.21;71.10;101409.44;5019946;28;20021;-78
2023/09/17 07:20:14;;;;;;;0.00;0.00;;;;;;;18.22;70.90;101411.19;5024033;28;20037;-77
2023/09/17 07:22:41;;;;;;;1.48;1.38;;;;;;;18.24;71.59;101414.66;5022559;28;20653;-78
2023/09/17 07:25:07;;;;;;;0.85;0.85;;;;;;;18.27;71.14;101411.84;5032289;28;20289;-77
2023/09/17 07:27:34;;;;;;;0.88;0.52;;;;;;;18.23;71.94;101418.28;5027457;28;20500;-77
2023/09/17 07:30:00;;;;;;;0.32;0.32;;;;;;;18.29;71.36;101417.16;5032134;28;20491;-78
2023/09/17 07:32:27;;;;;;;0.52;0.52;;;;;;;18.31;71.46;101417.97;5032247;28;20074;-78
2023/09/17 07:34:53;;;;;;;1.02;1.00;;;;;;;18.30;71.34;101414.38;5031640;28;20022;-78
2023/09/17 07:37:20;;;;;;;0.08;0.08;;;;;;;18.31;72.05;101417.97;5028727;28;20022;-78
2023/09/17 07:39:47;;;;;;;0.10;0.10;;;;;;;18.34;71.81;101416.00;5032445;28;20022;-78
2023/09/17 07:42:14;;;;;;;0.10;0.10;;;;;;;18.34;71.70;101415.13;5031744;28;20053;-77
2023/09/17 07:44:41;;;;;;;0.08;0.08;;;;;;;18.34;71.72;101421.34;5026634;28;20116;-77
2023/09/17 07:47:09;;;;;;;0.30;0.30;;;;;;;18.34;71.34;101416.00;5019008;28;20057;-77
2023/09/17 07:49:36;;;;;;;0.30;0.30;;;;;;;18.34;72.29;101416.00;5023753;28;20034;-77
2023/09/17 07:52:03;;;;;;;1.77;0.30;;;;;;;18.36;72.65;101419.50;5020335;28;20099;-77
2023/09/17 07:54:30;;;;;;;1.05;0.95;;;;;;;18.42;72.58;101424.59;5018869;28;20111;-76
2023/09/17 07:56:57;;;;;;;0.15;0.15;;;;;;;18.41;72.98;101422.84;5024326;28;20029;-76
2023/09/17 07:59:23;;;;;;;0.20;0.20;;;;;;;18.48;71.66;101422.56;5025146;28;20039;-76
2023/09/17 08:01:50;;;;;;;0.63;0.63;;;;;;;18.51;72.08;101419.78;5027572;28;20450;-76
2023/09/17 08:04:16;;;;;;;0.20;0.20;;;;;;;18.55;71.79;101424.06;5025156;28;20022;-77
2023/09/17 08:06:42;;;;;;;0.10;0.10;;;;;;;18.59;71.97;101420.28;5023979;28;20091;-77
2023/09/17 08:09:08;;;;;;;0.60;0.60;;;;;;;18.63;72.19;101421.91;5026547;28;20037;-78
2023/09/17 08:11:34;;;;;;;0.17;0.17;;;;;;;18.64;73.19;101426.34;5026407;28;20030;-77
2023/09/17 08:14:00;;;;;;;0.30;0.30;;;;;;;18.66;72.81;101421.75;5036269;28;20511;-77
2023/09/17 08:16:26;;;;;;;0.70;0.68;;;;;;;18.69;72.42;101421.63;5025825;28;20140;-77
2023/09/17 08:18:52;;;;;;;0.03;0.03;;;;;;;18.65;72.49;101414.63;5022691;28;20116;-77
2023/09/17 08:21:20;;;;;;;0.10;0.10;;;;;;;18.68;73.05;101411.84;5024877;28;20026;-77
2023/09/17 08:23:46;;;;;;;0.32;0.32;;;;;;;18.69;72.82;101410.91;5019417;28;20025;-77
2023/09/17 08:26:12;;;;;;;0.32;0.32;;;;;;;18.73;72.48;101412.50;5021978;28;20030;-77
2023/09/17 08:28:41;;;;;;;0.20;0.20;;;;;;;18.79;72.23;101410.47;5027187;28;20083;-77
2023/09/17 08:31:07;;;;;;;0.20;0.20;;;;;;;18.72;72.92;101405.38;5018021;28;20049;-77
2023/09/17 08:33:33;;;;;;;0.10;0.10;;;;;;;18.80;71.40;101406.84;5025360;28;20158;-78
2023/09/17 08:36:00;;;;;;;0.85;0.85;;;;;;;18.80;71.53;101398.78;5016782;28;20018;-77
2023/09/17 08:38:26;;;;;;;0.05;0.05;;;;;;;18.76;71.93;101390.88;5023955;28;20091;-77
2023/09/17 08:40:53;;;;;;;0.30;0.30;;;;;;;18.74;72.15;101398.13;5022572;28;20036;-78
2023/09/17 08:43:19;;;;;;;0.17;0.17;;;;;;;18.73;72.59;101407.13;5016392;28;20509;-78
2023/09/17 08:45:45;;;;;;;0.70;0.70;;;;;;;18.80;72.50;101402.34;5022739;28;20034;-77
2023/09/17 08:48:13;;;;;;;0.47;0.47;;;;;;;18.84;72.17;101408.44;5018285;28;20077;-78
2023/09/17 08:50:40;;;;;;;7.55;1.23;;;;;;;18.88;72.22;101410.06;5020568;28;20032;-77
2023/09/17 08:53:09;;;;;;;0.15;0.15;;;;;;;18.90;72.62;101401.03;5026357;28;20063;-77
2023/09/17 08:55:36;;;;;;;0.10;0.10;;;;;;;18.95;72.67;101408.84;5015690;28;20022;-78
2023/09/17 08:58:13;;;;;;;0.57;0.57;;;;;;;18.94;72.99;101407.13;5018899;28;20041;-78
2023/09/17 09:00:47;;;;;;;0.25;0.25;;;;;;;19.01;73.01;101400.50;5018661;28;20026;-76
2023/09/17 09:03:14;;;;;;;0.85;0.85;;;;;;;19.12;72.84;101399.16;5027868;28;20030;-77
2023/09/17 09:05:43;;;;;;;0.05;0.05;;;;;;;19.16;73.21;101406.13;5024074;28;20021;-77
2023/09/17 09:08:12;;;;;;;0.63;0.63;;;;;;;19.30;72.40;101405.47;5020825;28;20511;-77
2023/09/17 09:10:38;;;;;;;0.10;0.10;;;;;;;19.39;72.60;101415.78;5019310;28;20068;-77
2023/09/17 09:13:04;;;;;;;0.60;0.57;;;;;;;19.46;72.92;101406.44;5018210;28;20030;-77
2023/09/17 09:15:32;;;;;;;1.85;1.25;;;;;;;19.56;72.37;101407.78;5018483;28;20451;-77
2023/09/17 09:17:58;;;;;;;0.10;0.10;;;;;;;19.61;71.88;101404.84;5016395;28;20080;-78
2023/09/17 09:20:24;;;;;;;0.20;0.20;;;;;;;19.59;72.48;101401.38;5015145;28;20033;-78
2023/09/17 09:22:50;;;;;;;0.10;0.10;;;;;;;19.64;72.21;101401.13;5020544;28;20030;-77
2023/09/17 09:25:18;;;;;;;0.10;0.10;;;;;;;19.67;71.92;101409.03;5016666;28;20033;-77
2023/09/17 09:27:44;;;;;;;0.25;0.25;;;;;;;19.72;71.75;101404.31;5012160;28;20076;-77
2023/09/17 09:30:12;;;;;;;0.52;0.52;;;;;;;19.78;71.75;101417.44;5012599;28;20573;-77
2023/09/17 09:32:38;;;;;;;4.38;2.10;;;;;;;19.85;71.24;101401.91;5025041;28;20033;-77
2023/09/17 09:35:06;;;;;;;0.17;0.17;;;;;;;19.86;71.26;101403.66;5026033;28;20633;-77
2023/09/17 09:37:35;;;;;;;0.40;0.40;;;;;;;19.88;71.60;101415.22;5023564;28;20033;-77
2023/09/17 09:40:02;;;;;;;1.30;1.20;;;;;;;19.98;71.35;101415.63;5025368;28;20029;-77
2023/09/17 09:42:28;;;;;;;0.05;0.05;;;;;;;19.98;71.27;101408.41;5015676;28;20037;-77
2023/09/17 09:44:54;;;;;;;0.10;0.10;;;;;;;19.97;71.37;101411.19;5015684;28;20465;-78
2023/09/17 09:47:22;;;;;;;0.75;0.75;;;;;;;20.00;71.27;101398.47;5018799;28;20026;-78
2023/09/17 09:49:48;;;;;;;0.20;0.20;;;;;;;20.07;71.11;101395.44;5027024;28;20060;-78
2023/09/17 09:52:16;;;;;;;0.10;0.10;;;;;;;20.07;70.78;101395.44;5022245;28;20030;-78
2023/09/17 09:54:44;;;;;;;0.13;0.13;;;;;;;20.06;70.48;101385.63;5029639;28;20036;-76
2023/09/17 09:57:15;;;;;;;0.10;0.10;;;;;;;20.07;70.40;101384.69;5027805;28;20128;-78
2023/09/17 09:59:45;;;;;;;0.10;0.10;;;;;;;20.10;70.19;101373.75;5030260;28;20025;-78
2023/09/17 10:02:14;;;;;;;0.10;0.10;;;;;;;20.11;70.43;101380.88;5029223;28;20034;-75
2023/09/17 10:04:40;;;;;;;0.10;0.10;;;;;;;20.12;70.68;101369.19;5015909;28;20783;-77
2023/09/17 10:07:08;;;;;;;0.03;0.03;;;;;;;20.15;70.33;101367.22;5021017;28;20056;-76
2023/09/17 10:09:34;;;;;;;0.35;0.35;;;;;;;20.23;70.46;101374.88;5020707;28;20034;-76
2023/09/17 10:12:00;;;;;;;0.70;0.70;;;;;;;20.25;69.86;101362.22;5015054;28;20026;-76
2023/09/17 10:14:27;;;;;;;0.73;0.73;;;;;;;20.30;69.94;101354.78;5016786;28;20030;-76
2023/09/17 10:16:55;;;;;;;0.90;0.65;;;;;;;20.34;69.83;101358.16;5011852;28;20030;-74
2023/09/17 10:19:22;;;;;;;0.10;0.10;;;;;;;20.26;69.65;101346.94;5014058;28;20029;-75
2023/09/17 10:21:51;;;;;;;0.10;0.10;;;;;;;20.37;69.78;101355.31;5015733;28;20025;-76
2023/09/17 10:24:18;;;;;;;0.30;0.30;;;;;;;20.42;69.96;101355.06;5017840;28;20543;-76
2023/09/17 10:26:46;;;;;;;0.82;0.65;;;;;;;20.38;69.67;101351.66;5026985;28;20510;-76
2023/09/17 10:29:13;;;;;;;0.30;0.30;;;;;;;20.38;69.53;101348.13;5020000;28;20116;-74
2023/09/17 10:31:42;;;;;;;0.38;0.38;;;;;;;20.35;69.35;101346.47;5023972;28;20034;-75
2023/09/17 10:34:12;;;;;;;0.10;0.10;;;;;;;20.40;69.31;101348.88;5024202;28;20029;-75
2023/09/17 10:36:39;;;;;;;0.47;0.47;;;;;;;20.37;69.67;101352.59;5027454;28;20495;-75
2023/09/17 10:39:09;;;;;;;1.17;0.45;;;;;;;20.45;69.43;101346.81;5018564;28;20466;-75
2023/09/17 10:41:37;;;;;;;0.25;0.25;;;;;;;20.40;69.28;101355.16;5024966;28;20061;-75
2023/09/17 10:44:04;;;;;;;0.10;0.10;;;;;;;20.45;69.16;101349.50;5025501;28;20036;-76
2023/09/17 10:46:31;;;;;;;0.57;0.57;;;;;;;20.48;69.82;101352.91;5019761;28;20045;-76
2023/09/17 10:48:58;;;;;;;0.35;0.35;;;;;;;20.55;69.59;101353.47;5029963;28;20041;-76
2023/09/17 10:51:26;;;;;;;0.50;0.50;;;;;;;20.60;69.63;101351.38;5030726;28;20026;-76
2023/09/17 10:53:53;;;;;;;1.50;0.93;;;;;;;20.60;69.18;101346.00;5023506;28;20037;-76
2023/09/17 10:56:20;;;;;;;1.05;0.95;;;;;;;20.59;69.00;101349.63;5024583;28;20075;-76
2023/09/17 10:58:50;;;;;;;0.10;0.10;;;;;;;20.56;69.11;101349.81;5023907;28;20029;-75
2023/09/17 11:01:26;;;;;;;0.22;0.22;;;;;;;20.59;69.32;101349.63;5023577;28;20455;-77
2023/09/17 11:03:59;;;;;;;0.47;0.47;;;;;;;20.60;69.31;101348.69;5019939;28;20486;-76
2023/09/17 11:06:28;;;;;;;0.77;0.77;;;;;;;20.63;69.60;101343.13;5029832;28;20026;-76
2023/09/17 11:08:56;;;;;;;0.38;0.38;;;;;;;20.71;69.09;101345.47;5023243;28;20029;-76
2023/09/17 11:11:24;;;;;;;0.20;0.20;;;;;;;20.77;69.22;101334.34;5031938;28;20029;-76
2023/09/17 11:13:52;;;;;;;0.10;0.10;;;;;;;20.80;68.93;101347.63;5033195;28;20029;-76
2023/09/17 11:16:23;;;;;;;0.95;0.95;;;;;;;20.85;68.92;101344.69;5030589;28;20164;-76
2023/09/17 11:19:10;;;;;;;0.10;0.10;;;;;;;20.94;68.63;101340.63;5027675;28;20030;-77
2023/09/17 11:21:47;;;;;;;0.85;0.77;;;;;;;20.85;68.37;101339.31;5023507;28;20026;-76
2023/09/17 11:24:17;;;;;;;0.17;0.17;;;;;;;20.91;68.40;101338.97;5031440;28;20112;-76
2023/09/17 11:26:45;;;;;;;0.30;0.30;;;;;;;20.95;68.87;101332.44;5030471;28;20021;-77